Wetterdaten: Woche 14.08.17 - 20.08.17 (KW33)
Datum Zeit Temp. A. Feuchte A. Luftdruck Regen Wind Richtung Taupunkt Windchill Windben
14.08.2017 00:00 19,8 C 72 % 1019,9 hPa 0,0 l/m 1,8 km/h N 14,6 C 19,8 C 8,8 km/h
14.08.2017 01:00 19,3 C 73 % 1020,0 hPa 0,0 l/m 0,5 km/h N 14,3 C 19,3 C 6,0 km/h
14.08.2017 02:00 18,5 C 75 % 1020,1 hPa 0,0 l/m 0,2 km/h N 14,0 C 18,5 C 4,0 km/h
14.08.2017 03:00 17,9 C 77 % 1020,4 hPa 0,0 l/m 0,0 km/h N 13,7 C 17,9 C 0,8 km/h
14.08.2017 04:00 17,4 C 79 % 1020,2 hPa 0,0 l/m 0,0 km/h N 13,7 C 17,4 C 0,8 km/h
14.08.2017 05:00 17,3 C 79 % 1020,3 hPa 0,0 l/m 0,0 km/h N 13,6 C 17,3 C 1,2 km/h
14.08.2017 06:00 16,3 C 80 % 1020,8 hPa 0,0 l/m 0,0 km/h N 12,8 C 16,3 C 0,0 km/h
14.08.2017 07:00 16,6 C 81 % 1021,2 hPa 0,0 l/m 0,0 km/h N 13,3 C 16,6 C 0,4 km/h
14.08.2017 08:00 18,8 C 79 % 1021,2 hPa 0,0 l/m 0,8 km/h N 15,1 C 18,8 C 6,0 km/h
14.08.2017 09:00 21,4 C 71 % 1021,2 hPa 0,0 l/m 1,8 km/h N 15,9 C 21,4 C 9,7 km/h
14.08.2017 10:00 23,4 C 65 % 1021,2 hPa 0,0 l/m 0,4 km/h N 16,4 C 23,4 C 5,2 km/h
14.08.2017 11:00 24,8 C 59 % 1021,0 hPa 0,0 l/m 0,6 km/h N 16,2 C 24,8 C 7,2 km/h
14.08.2017 12:00 25,8 C 56 % 1020,7 hPa 0,0 l/m 0,5 km/h N 16,3 C 25,8 C 6,0 km/h
14.08.2017 13:00 26,3 C 52 % 1020,4 hPa 0,0 l/m 1,5 km/h N 15,6 C 26,3 C 10,9 km/h
14.08.2017 14:00 26,0 C 50 % 1019,9 hPa 0,0 l/m 1,0 km/h N 14,6 C 26,0 C 8,0 km/h
14.08.2017 15:00 26,8 C 47 % 1019,5 hPa 0,0 l/m 0,9 km/h N 14,5 C 26,8 C 6,8 km/h
14.08.2017 16:00 26,5 C 46 % 1019,2 hPa 0,0 l/m 0,3 km/h N 13,8 C 26,5 C 4,8 km/h
14.08.2017 17:00 26,2 C 45 % 1019,1 hPa 0,0 l/m 0,0 km/h N 13,3 C 26,2 C 1,6 km/h
14.08.2017 18:00 26,1 C 46 % 1019,1 hPa 0,0 l/m 0,3 km/h N 13,5 C 26,1 C 3,6 km/h
14.08.2017 19:00 25,5 C 49 % 1019,1 hPa 0,0 l/m 0,0 km/h N 13,9 C 25,5 C 1,2 km/h
14.08.2017 20:00 23,5 C 57 % 1019,4 hPa 0,0 l/m 0,0 km/h N 14,3 C 23,5 C 0,0 km/h
14.08.2017 21:00 21,1 C 67 % 1020,0 hPa 0,0 l/m 0,0 km/h N 14,7 C 21,1 C 1,2 km/h
14.08.2017 22:00 20,0 C 69 % 1020,2 hPa 0,0 l/m 0,0 km/h N 14,2 C 20,0 C 0,0 km/h
14.08.2017 23:00 18,3 C 73 % 1020,4 hPa 0,0 l/m 0,0 km/h N 13,4 C 18,3 C 0,0 km/h
15.08.2017 00:00 16,9 C 77 % 1020,4 hPa 0,0 l/m 0,0 km/h N 12,8 C 16,9 C 0,0 km/h
15.08.2017 01:00 15,8 C 79 % 1020,2 hPa 0,0 l/m 0,0 km/h N 12,1 C 15,8 C 0,0 km/h
15.08.2017 02:00 15,1 C 81 % 1020,0 hPa 0,0 l/m 0,0 km/h N 11,7 C 15,1 C 0,0 km/h
15.08.2017 03:00 14,7 C 81 % 1019,9 hPa 0,0 l/m 0,0 km/h N 11,5 C 14,7 C 0,4 km/h
15.08.2017 04:00 14,1 C 81 % 1019,7 hPa 0,0 l/m 0,0 km/h N 10,8 C 14,1 C 0,0 km/h
15.08.2017 05:00 13,5 C 82 % 1019,7 hPa 0,0 l/m 0,0 km/h N 10,4 C 13,5 C 0,0 km/h
15.08.2017 06:00 13,2 C 82 % 1019,9 hPa 0,0 l/m 0,0 km/h N 10,2 C 13,2 C 0,0 km/h
15.08.2017 07:00 14,2 C 82 % 1020,1 hPa 0,0 l/m 0,0 km/h N 11,1 C 14,2 C 0,0 km/h
15.08.2017 08:00 16,5 C 82 % 1020,3 hPa 0,0 l/m 0,0 km/h N 13,4 C 16,5 C 0,8 km/h
15.08.2017 09:00 20,7 C 73 % 1020,1 hPa 0,0 l/m 0,1 km/h N 15,6 C 20,7 C 2,8 km/h
15.08.2017 10:00 23,9 C 64 % 1019,9 hPa 0,0 l/m 0,3 km/h N 16,7 C 23,9 C 4,8 km/h
15.08.2017 11:00 26,5 C 59 % 1019,5 hPa 0,0 l/m 0,3 km/h N 17,9 C 26,5 C 3,6 km/h
15.08.2017 12:00 28,7 C 54 % 1019,1 hPa 0,0 l/m 0,5 km/h N 18,3 C 28,7 C 6,0 km/h
15.08.2017 13:00 30,0 C 48 % 1018,5 hPa 0,0 l/m 0,6 km/h N 17,6 C 30,0 C 6,8 km/h
15.08.2017 14:00 30,5 C 43 % 1018,2 hPa 0,0 l/m 1,0 km/h N 16,4 C 30,5 C 8,1 km/h
15.08.2017 15:00 30,7 C 41 % 1017,8 hPa 0,0 l/m 0,2 km/h N 15,9 C 30,7 C 4,0 km/h
15.08.2017 16:00 29,5 C 42 % 1017,5 hPa 0,0 l/m 0,6 km/h N 15,2 C 29,5 C 4,8 km/h
15.08.2017 17:00 29,0 C 43 % 1017,3 hPa 0,0 l/m 0,3 km/h N 15,1 C 29,0 C 4,4 km/h
15.08.2017 18:00 28,7 C 44 % 1017,1 hPa 0,0 l/m 0,3 km/h N 15,1 C 28,7 C 5,6 km/h
15.08.2017 19:00 28,2 C 46 % 1017,0 hPa 0,0 l/m 0,2 km/h N 15,5 C 28,2 C 3,6 km/h
15.08.2017 20:00 26,1 C 53 % 1017,3 hPa 0,0 l/m 0,0 km/h N 15,7 C 26,1 C 0,8 km/h
15.08.2017 21:00 22,6 C 65 % 1017,3 hPa 0,0 l/m 0,0 km/h N 15,6 C 22,6 C 0,0 km/h
15.08.2017 22:00 20,4 C 73 % 1017,1 hPa 0,0 l/m 0,0 km/h N 15,4 C 20,4 C 0,0 km/h
15.08.2017 23:00 19,0 C 77 % 1017,2 hPa 0,0 l/m 0,0 km/h N 14,9 C 19,0 C 0,0 km/h
16.08.2017 00:00 18,1 C 80 % 1017,1 hPa 0,0 l/m 0,0 km/h N 14,6 C 18,1 C 0,0 km/h
16.08.2017 01:00 17,4 C 81 % 1017,0 hPa 0,0 l/m 0,0 km/h N 14,1 C 17,4 C 0,0 km/h
16.08.2017 02:00 17,0 C 81 % 1016,9 hPa 0,0 l/m 0,0 km/h N 13,7 C 17,0 C 0,4 km/h
16.08.2017 03:00 16,6 C 82 % 1016,8 hPa 0,0 l/m 0,0 km/h N 13,5 C 16,6 C 0,0 km/h
16.08.2017 04:00 16,2 C 82 % 1017,0 hPa 0,0 l/m 0,0 km/h N 13,1 C 16,2 C 0,4 km/h
16.08.2017 05:00 15,8 C 82 % 1017,1 hPa 0,0 l/m 0,0 km/h N 12,7 C 15,8 C 0,0 km/h
16.08.2017 06:00 15,4 C 82 % 1017,7 hPa 0,0 l/m 0,0 km/h N 12,3 C 15,4 C 0,0 km/h
16.08.2017 07:00 17,0 C 82 % 1018,3 hPa 0,0 l/m 0,1 km/h N 13,9 C 17,0 C 2,4 km/h
16.08.2017 08:00 20,6 C 80 % 1018,2 hPa 0,0 l/m 0,6 km/h N 16,9 C 20,6 C 6,8 km/h
16.08.2017 09:00 24,4 C 68 % 1018,4 hPa 0,0 l/m 2,0 km/h N 18,0 C 24,4 C 16,5 km/h
16.08.2017 10:00 25,8 C 61 % 1018,8 hPa 0,0 l/m 5,3 km/h N 17,6 C 25,8 C 20,5 km/h
16.08.2017 11:00 26,0 C 60 % 1019,3 hPa 0,0 l/m 6,0 km/h N 17,5 C 25,9 C 24,5 km/h
16.08.2017 12:00 26,7 C 59 % 1019,1 hPa 0,0 l/m 6,6 km/h N 18,1 C 26,5 C 22,1 km/h
16.08.2017 13:00 27,0 C 56 % 1018,9 hPa 0,0 l/m 7,1 km/h N 17,3 C 26,9 C 21,3 km/h
16.08.2017 14:00 26,5 C 54 % 1018,8 hPa 0,0 l/m 8,8 km/h N 16,4 C 26,0 C 27,8 km/h
16.08.2017 15:00 26,5 C 55 % 1018,6 hPa 0,0 l/m 9,5 km/h N 16,8 C 25,9 C 26,2 km/h
16.08.2017 16:00 26,3 C 56 % 1018,8 hPa 0,0 l/m 8,4 km/h N 16,6 C 25,8 C 24,1 km/h
16.08.2017 17:00 25,8 C 57 % 1018,9 hPa 0,0 l/m 4,8 km/h N 16,7 C 25,7 C 18,5 km/h
16.08.2017 18:00 25,6 C 58 % 1018,8 hPa 0,0 l/m 4,8 km/h N 16,7 C 25,5 C 18,1 km/h
16.08.2017 19:00 25,0 C 61 % 1019,0 hPa 0,0 l/m 2,6 km/h N 17,0 C 25,0 C 11,3 km/h
16.08.2017 20:00 23,9 C 63 % 1019,2 hPa 0,0 l/m 0,3 km/h N 16,5 C 23,9 C 5,2 km/h
16.08.2017 21:00 22,7 C 66 % 1019,3 hPa 0,0 l/m 0,3 km/h N 16,0 C 22,7 C 4,0 km/h
16.08.2017 22:00 22,0 C 69 % 1019,5 hPa 0,0 l/m 0,1 km/h N 16,0 C 22,0 C 2,4 km/h
16.08.2017 23:00 21,1 C 72 % 1019,6 hPa 0,0 l/m 0,1 km/h N 15,9 C 21,1 C 2,4 km/h
17.08.2017 00:00 20,1 C 75 % 1019,6 hPa 0,0 l/m 0,0 km/h N 15,6 C 20,1 C 1,2 km/h
17.08.2017 01:00 20,1 C 76 % 1019,3 hPa 0,0 l/m 0,3 km/h N 15,7 C 20,1 C 6,8 km/h
17.08.2017 02:00 20,7 C 74 % 1019,1 hPa 0,0 l/m 0,4 km/h N 15,9 C 20,7 C 6,0 km/h
17.08.2017 03:00 20,4 C 74 % 1019,1 hPa 0,0 l/m 0,9 km/h N 15,4 C 20,4 C 5,6 km/h
17.08.2017 04:00 19,9 C 75 % 1018,8 hPa 0,0 l/m 0,5 km/h N 15,4 C 19,9 C 6,4 km/h
17.08.2017 05:00 19,3 C 77 % 1019,0 hPa 0,0 l/m 0,9 km/h N 15,2 C 19,3 C 8,0 km/h
17.08.2017 06:00 18,7 C 78 % 1019,3 hPa 0,0 l/m 0,6 km/h N 14,8 C 18,7 C 4,0 km/h
17.08.2017 07:00 18,8 C 80 % 1019,5 hPa 0,0 l/m 1,0 km/h N 15,2 C 18,8 C 7,2 km/h
17.08.2017 08:00 20,1 C 79 % 1019,6 hPa 0,0 l/m 1,8 km/h N 16,3 C 20,1 C 9,3 km/h
17.08.2017 09:00 22,0 C 75 % 1019,6 hPa 0,0 l/m 1,0 km/h N 17,4 C 22,0 C 8,4 km/h
17.08.2017 10:00 23,8 C 70 % 1019,5 hPa 0,0 l/m 1,2 km/h N 18,0 C 23,8 C 8,0 km/h
17.08.2017 11:00 25,5 C 64 % 1019,1 hPa 0,0 l/m 0,6 km/h N 18,2 C 25,5 C 5,2 km/h
17.08.2017 12:00 26,9 C 57 % 1018,7 hPa 0,0 l/m 0,7 km/h N 17,7 C 26,9 C 8,9 km/h
17.08.2017 13:00 28,2 C 53 % 1018,1 hPa 0,0 l/m 0,8 km/h N 17,7 C 28,2 C 7,2 km/h
17.08.2017 14:00 29,0 C 48 % 1017,5 hPa 0,0 l/m 0,5 km/h N 16,9 C 29,0 C 6,4 km/h
17.08.2017 15:00 28,8 C 48 % 1017,0 hPa 0,0 l/m 0,3 km/h N 16,5 C 28,8 C 4,4 km/h
17.08.2017 16:00 28,4 C 46 % 1016,4 hPa 0,0 l/m 0,3 km/h N 15,6 C 28,4 C 4,4 km/h
17.08.2017 17:00 28,5 C 46 % 1016,0 hPa 0,0 l/m 0,0 km/h N 15,7 C 28,5 C 2,0 km/h
17.08.2017 18:00 28,2 C 46 % 1016,0 hPa 0,0 l/m 0,1 km/h N 15,6 C 28,2 C 3,6 km/h
17.08.2017 19:00 27,3 C 51 % 1016,0 hPa 0,0 l/m 0,0 km/h N 16,3 C 27,3 C 0,4 km/h
17.08.2017 20:00 24,8 C 62 % 1016,4 hPa 0,0 l/m 0,0 km/h N 17,0 C 24,8 C 0,0 km/h
17.08.2017 21:00 22,5 C 68 % 1016,9 hPa 0,0 l/m 0,0 km/h N 16,4 C 22,5 C 0,0 km/h
17.08.2017 22:00 21,0 C 73 % 1016,9 hPa 0,0 l/m 0,0 km/h N 15,9 C 21,0 C 0,0 km/h
17.08.2017 23:00 20,3 C 76 % 1016,8 hPa 0,0 l/m 0,0 km/h N 15,8 C 20,3 C 0,0 km/h
18.08.2017 00:00 19,6 C 78 % 1016,7 hPa 0,0 l/m 0,0 km/h N 15,6 C 19,6 C 0,0 km/h
18.08.2017 01:00 19,0 C 79 % 1016,4 hPa 0,0 l/m 0,1 km/h N 15,3 C 19,0 C 1,2 km/h
18.08.2017 02:00 18,6 C 81 % 1016,3 hPa 0,0 l/m 0,0 km/h N 15,2 C 18,6 C 1,2 km/h
18.08.2017 03:00 18,0 C 81 % 1016,2 hPa 0,0 l/m 0,0 km/h N 14,7 C 18,0 C 0,0 km/h
18.08.2017 04:00 17,6 C 81 % 1016,2 hPa 0,0 l/m 0,2 km/h N 14,3 C 17,6 C 0,8 km/h
18.08.2017 05:00 17,3 C 81 % 1016,4 hPa 0,0 l/m 0,0 km/h N 14,0 C 17,3 C 1,2 km/h
18.08.2017 06:00 17,0 C 82 % 1016,9 hPa 0,0 l/m 0,0 km/h N 14,0 C 17,0 C 0,0 km/h
18.08.2017 07:00 17,7 C 82 % 1017,1 hPa 0,0 l/m 0,0 km/h N 14,6 C 17,7 C 0,0 km/h
18.08.2017 08:00 19,5 C 82 % 1017,3 hPa 0,0 l/m 0,0 km/h N 16,3 C 19,5 C 0,8 km/h
18.08.2017 09:00 23,3 C 75 % 1017,2 hPa 0,0 l/m 0,1 km/h N 18,5 C 23,3 C 2,0 km/h
18.08.2017 10:00 26,5 C 62 % 1016,9 hPa 0,0 l/m 0,3 km/h N 18,7 C 26,5 C 4,4 km/h
18.08.2017 11:00 28,9 C 58 % 1016,4 hPa 0,0 l/m 0,2 km/h N 19,7 C 28,9 C 2,8 km/h
18.08.2017 12:00 31,0 C 50 % 1015,8 hPa 0,0 l/m 0,3 km/h N 19,3 C 31,0 C 4,0 km/h
18.08.2017 13:00 32,5 C 48 % 1015,0 hPa 0,0 l/m 1,0 km/h N 20,0 C 32,5 C 9,3 km/h
18.08.2017 14:00 32,8 C 46 % 1014,1 hPa 0,0 l/m 1,3 km/h N 19,5 C 32,8 C 8,4 km/h
18.08.2017 15:00 33,0 C 42 % 1013,2 hPa 0,0 l/m 2,0 km/h N 18,4 C 33,0 C 13,3 km/h
18.08.2017 16:00 32,6 C 41 % 1012,5 hPa 0,0 l/m 2,3 km/h N 17,6 C 32,6 C 9,7 km/h
18.08.2017 17:00 32,2 C 42 % 1012,0 hPa 0,0 l/m 2,6 km/h N 17,7 C 32,2 C 13,7 km/h
18.08.2017 18:00 31,7 C 42 % 1011,5 hPa 0,0 l/m 2,3 km/h N 17,2 C 31,7 C 10,1 km/h
18.08.2017 19:00 30,6 C 45 % 1011,1 hPa 0,0 l/m 1,4 km/h N 17,3 C 30,6 C 8,0 km/h
18.08.2017 20:00 29,0 C 48 % 1011,0 hPa 0,0 l/m 0,9 km/h N 16,9 C 29,0 C 6,9 km/h
18.08.2017 21:00 27,4 C 51 % 1010,5 hPa 0,0 l/m 0,3 km/h N 16,3 C 27,4 C 3,2 km/h
18.08.2017 22:00 26,4 C 54 % 1010,3 hPa 0,0 l/m 0,2 km/h N 16,2 C 26,4 C 2,4 km/h
18.08.2017 23:00 25,5 C 55 % 1010,5 hPa 0,0 l/m 0,4 km/h N 15,7 C 25,5 C 4,8 km/h
19.08.2017 00:00 25,2 C 55 % 1010,6 hPa 0,0 l/m 0,8 km/h N 15,6 C 25,2 C 6,8 km/h
19.08.2017 01:00 25,1 C 54 % 1012,3 hPa 0,0 l/m 5,0 km/h N 15,2 C 25,0 C 21,7 km/h
19.08.2017 02:00 23,3 C 60 % 1013,0 hPa 0,0 l/m 6,9 km/h N 15,0 C 23,0 C 33,0 km/h
19.08.2017 03:00 22,2 C 63 % 1013,3 hPa 0,0 l/m 6,0 km/h N 14,8 C 22,1 C 25,0 km/h
19.08.2017 04:00 21,6 C 65 % 1013,9 hPa 0,0 l/m 1,5 km/h N 14,7 C 21,6 C 11,3 km/h
19.08.2017 05:00 21,1 C 66 % 1014,4 hPa 0,0 l/m 1,6 km/h N 14,6 C 21,1 C 11,3 km/h
19.08.2017 06:00 20,7 C 68 % 1015,0 hPa 0,0 l/m 4,8 km/h N 14,6 C 20,7 C 19,3 km/h
19.08.2017 07:00 20,3 C 70 % 1015,7 hPa 0,0 l/m 8,1 km/h N 14,7 C 19,7 C 23,7 km/h
19.08.2017 08:00 19,9 C 72 % 1016,2 hPa 0,0 l/m 7,8 km/h N 14,7 C 19,4 C 21,7 km/h
19.08.2017 09:00 19,2 C 76 % 1016,7 hPa 0,0 l/m 3,9 km/h N 14,9 C 19,2 C 14,5 km/h
19.08.2017 10:00 18,8 C 78 % 1017,7 hPa 0,5 l/m 2,5 km/h N 14,8 C 18,8 C 12,9 km/h
19.08.2017 11:00 17,9 C 81 % 1018,7 hPa 4,9 l/m 0,4 km/h N 14,4 C 17,9 C 5,2 km/h
19.08.2017 12:00 17,9 C 81 % 1018,3 hPa 1,3 l/m 0,5 km/h N 14,6 C 17,9 C 4,4 km/h
19.08.2017 13:00 18,0 C 81 % 1018,0 hPa 0,0 l/m 0,5 km/h N 14,7 C 18,0 C 3,2 km/h
19.08.2017 14:00 18,2 C 81 % 1018,3 hPa 0,3 l/m 2,0 km/h N 14,8 C 18,2 C 7,6 km/h
19.08.2017 15:00 17,9 C 82 % 1018,6 hPa 1,6 l/m 1,1 km/h N 14,7 C 17,9 C 5,3 km/h
19.08.2017 16:00 18,1 C 82 % 1018,4 hPa 1,0 l/m 0,0 km/h N 15,0 C 18,1 C 0,0 km/h
19.08.2017 17:00 18,6 C 82 % 1017,7 hPa 0,0 l/m 0,1 km/h N 15,5 C 18,6 C 2,8 km/h
19.08.2017 18:00 18,5 C 82 % 1017,7 hPa 0,0 l/m 0,3 km/h N 15,2 C 18,5 C 4,4 km/h
19.08.2017 19:00 17,9 C 82 % 1017,9 hPa 0,3 l/m 0,2 km/h N 14,7 C 17,9 C 4,0 km/h
19.08.2017 20:00 17,5 C 82 % 1018,0 hPa 0,5 l/m 1,7 km/h N 14,4 C 17,5 C 12,1 km/h
19.08.2017 21:00 17,2 C 82 % 1018,0 hPa 0,3 l/m 7,0 km/h N 14,1 C 16,2 C 20,1 km/h
19.08.2017 22:00 16,9 C 82 % 1018,4 hPa 0,3 l/m 10,7 km/h N 13,7 C 15,0 C 26,1 km/h
19.08.2017 23:00 16,5 C 81 % 1018,3 hPa 0,3 l/m 4,1 km/h N 13,2 C 16,3 C 14,9 km/h
20.08.2017 00:00 16,4 C 80 % 1018,1 hPa 0,0 l/m 4,9 km/h N 12,9 C 16,2 C 18,1 km/h
20.08.2017 01:00 16,9 C 78 % 1017,5 hPa 0,0 l/m 6,6 km/h N 13,0 C 16,3 C 19,3 km/h
20.08.2017 02:00 17,2 C 77 % 1017,8 hPa 0,0 l/m 7,4 km/h N 13,2 C 16,4 C 22,5 km/h
20.08.2017 03:00 16,8 C 78 % 1017,9 hPa 0,0 l/m 6,2 km/h N 13,0 C 16,6 C 20,9 km/h
20.08.2017 04:00 16,3 C 80 % 1017,9 hPa 0,5 l/m 5,7 km/h N 12,9 C 15,6 C 18,5 km/h
20.08.2017 05:00 15,5 C 82 % 1017,6 hPa 0,5 l/m 1,2 km/h N 12,4 C 15,5 C 9,6 km/h
20.08.2017 06:00 15,5 C 81 % 1017,8 hPa 0,0 l/m 5,1 km/h N 12,2 C 15,3 C 15,3 km/h
20.08.2017 07:00 16,1 C 79 % 1017,9 hPa 0,0 l/m 7,1 km/h N 12,5 C 15,7 C 22,9 km/h
20.08.2017 08:00 16,8 C 77 % 1018,2 hPa 0,0 l/m 8,2 km/h N 12,8 C 16,0 C 21,7 km/h
20.08.2017 09:00 17,0 C 76 % 1018,7 hPa 0,0 l/m 8,6 km/h N 12,8 C 15,9 C 20,9 km/h
20.08.2017 10:00 17,5 C 74 % 1019,3 hPa 0,0 l/m 7,2 km/h N 12,9 C 17,1 C 20,9 km/h
20.08.2017 11:00 19,5 C 70 % 1019,3 hPa 0,0 l/m 9,0 km/h N 13,7 C 18,4 C 24,5 km/h
20.08.2017 12:00 20,7 C 63 % 1019,3 hPa 0,0 l/m 7,9 km/h N 13,2 C 20,1 C 23,7 km/h
20.08.2017 13:00 21,0 C 60 % 1019,0 hPa 0,0 l/m 6,3 km/h N 12,7 C 20,7 C 20,5 km/h
20.08.2017 14:00 21,9 C 53 % 1018,7 hPa 0,0 l/m 8,6 km/h N 11,8 C 21,2 C 23,7 km/h
20.08.2017 15:00 21,8 C 59 % 1018,8 hPa 0,0 l/m 7,4 km/h N 13,5 C 21,4 C 24,1 km/h
20.08.2017 16:00 21,5 C 57 % 1019,1 hPa 0,0 l/m 11,0 km/h N 12,7 C 20,1 C 30,6 km/h
20.08.2017 17:00 20,0 C 57 % 1019,5 hPa 0,0 l/m 10,1 km/h N 11,1 C 18,7 C 28,2 km/h
20.08.2017 18:00 19,7 C 58 % 1019,6 hPa 0,0 l/m 7,2 km/h N 11,2 C 19,3 C 22,9 km/h
20.08.2017 19:00 18,4 C 63 % 1019,7 hPa 0,0 l/m 7,3 km/h N 11,2 C 18,0 C 23,3 km/h
20.08.2017 20:00 18,2 C 59 % 1020,1 hPa 0,0 l/m 6,9 km/h N 10,0 C 18,0 C 22,1 km/h
20.08.2017 21:00 17,9 C 64 % 1020,6 hPa 0,0 l/m 4,8 km/h N 10,9 C 17,9 C 19,3 km/h
20.08.2017 22:00 17,8 C 65 % 1020,8 hPa 0,0 l/m 2,9 km/h N 11,0 C 17,8 C 13,7 km/h
20.08.2017 23:00 17,3 C 65 % 1021,0 hPa 0,0 l/m 1,6 km/h N 10,7 C 17,3 C 10,9 km/h
Min-Datum _ 15.08.17 15.08.17 18.08.17 - 14.08.17 - 20.08.17 15.08.17 14.08.17
_ Min-Zeit 06:15 15:30 21:45 - 02:15 - 20:15 06:15 03:15
Minimum _ 13,1 C 39 % 1010,2 hPa - 0,0 km/h - 9,8 C 13,1 C 0,0 km/h
Max-Datum _ 18.08.17 15.08.17 14.08.17 19.08.17 16.08.17 - 18.08.17 18.08.17 19.08.17
_ Max-Zeit 14:45 05:15 09:45 11:15 16:00 - 14:30 14:45 02:30
Maximum _ 33,2 C 82 % 1021,3 hPa 4,9 l/m 12,6 km/h
N
- 20,4 C 33,2 C 40,2 km/h
N
Durchschnitt _ 21,8 C 67 % 1017,9 hPa #12,2 l/m 2,1 km/h N 14,9 C 21,7 C 8,6 km/h